Scroll down
FLIGHT INFORMATION
Southern Air

SOO2201

At Arrival Gate

CYYZ
 MMMX
DATE: 2020-09-25
GATE:  -
GATE DEPARTURE: 13:31
TAKEOFF: 13:40
DATE: 2020-09-25
GATE:  -
LANDING: 18:06
GATE ARRIVAL: 18:11
FLIGHT DATA
Speed: 
486 kts
Altitude: 
33,018 ft
Stage Length: 
1,752.9 nm
Block Time: 
4.7 hrs
Flight Time: 
4.4 hrs
Fuel Used: 
29,767 lb
Cleared Route: CYYZ GNTRY DJB BVT SPI MEM CARIN TOZZI SUTTN ELD MIXIE LURIC ENJOY VELCO DARTR RAECN IAH PSX BRO GROSZ MAM GAGPI URVUT NADOR XOMLU TMN AVSAR MMMX
TRACK DATA
50,000 ft 1,000 kts
AIRCRAFT INFO AND CUMULATIVE STATS
Aircraft Type: 
B738BCF
Registration: 
SELCAL: 
MSN/LN: 
32614 / 1201
Operator: 
Total Flights: 
6
Total Block Time: 
13.7 hrs
Total Flight Time: 
12.1 hrs
Total Fuel Time: 
79,467 lb
DATALINK LOG | Newest first | Current as of: 2020-11-29 01:25:35
LABEL SEQUENCE CONTENT Dn/Up
QD144518:11 14.2▼ Dn
QC094118:06▼ Dn
2U4617MMMX 251650Z 08004KT 4SM SCT020 BKN080 20/12 A3039 NOSIG RMK 8/530 HZY ISOL CU▲ Up
2S4922MMMX▼ Dn
GR4921MMMX 18:07 MAAS YP/UM WCHR/S/C HI-VAL NO DIPL/VIP NO▼ Dn
5U5405MMMX 251749Z 00000KT 5SM HZ SCT020 BKN100 BKN200 TX24/2521Z TN14/2512Z 15/13 A3035▲ Up
5S5459MMMX▼ Dn
QB414713:40▼ Dn
QA323913:31 44▼ Dn
A32744CLEARED TO MMMX VIA MIXUT6 GNTRY DJB BVT SPI MEM J29 PSX BRO J25 MAM UJ35 AVSAR AVSA1C. SQUAWK .▲ Up
Q02432[LINK ACK]▲ Up
Q02431[LINK TEST]▼ Dn


AIRCRAFT HISTORY
FLIGHT DATE FLIGHT NO. ORIGIN DESTINATION CLEARED ROUTE BLOCK TIME FLIGHT TIME FUEL USED PILOT
2020-09-25SOO2201CYYZ MMMX CYYZ GNTRY DJB BVT SPI MEM CARIN TOZZI SUTTN ELD MIXIE LURIC ENJOY VELCO DARTR RAECN IAH PSX BRO GROSZ MAM GAGPI URVUT NADOR XOMLU TMN AVSAR MMMX4.7 hrs4.4 hrs29,767 lbRoberto Stopnicki
2020-08-29SOO2201KMEM CYYZ KMEM HUMMS PXV MAYZE QWERI CYYZ2 hrs1.8 hrs11,599 lbRoberto Stopnicki
2020-08-27SOO827KYIP KMEM KYIP SINKR PXV KMEM1.9 hrs1.6 hrs10,693 lbKevin Hall
2020-08-25SOO825KORD KYIP KORD MOBLE ADIME PETTE SYREN KYIP1.1 hrs0.6 hrs5,130 lbKevin Hall
2020-08-09SOO4505KMSP KORD KMSP FGT FOBUG DOKTR CORDY RST ZZIPR WELCM TEEOO MITEE BHAWK STNLE CUUPP CHMPN CLSBY FYTTE MOTRR COGSS MADII SOOLU JORJO MONKZ TONIE HAZIL RW28C1.2 hrs1 hrs7,249 lbGeorge M
2020-08-08SOO512KBDL KMSP KBDL CTR HANAA ARNII GOATR AHPAH KELTI AGDOX NOSIK ZOHAN IDIOM SHEAY CMARO JERMN MUSCL BAYKS WOLVS LOOON WDBRY ZASKY CMMOE COZZZ HAMML RW12L3.2 hrs2.6 hrs15,029 lbDan Downs